sensor_id;sensor_type;location;lat;lon;timestamp;P1;durP1;ratioP1;P2;durP2;ratioP2
16037;SDS011;8123;50.906;6.172;2023-04-03T00:01:34;15.07;;;4.73;;
16037;SDS011;8123;50.906;6.172;2023-04-03T00:04:01;9.90;;;5.40;;
16037;SDS011;8123;50.906;6.172;2023-04-03T00:06:27;5.80;;;4.73;;
16037;SDS011;8123;50.906;6.172;2023-04-03T00:08:52;6.93;;;4.97;;
16037;SDS011;8123;50.906;6.172;2023-04-03T00:11:18;8.47;;;5.10;;
16037;SDS011;8123;50.906;6.172;2023-04-03T00:13:45;4.73;;;4.43;;
16037;SDS011;8123;50.906;6.172;2023-04-03T00:16:11;13.93;;;4.83;;
16037;SDS011;8123;50.906;6.172;2023-04-03T00:18:37;12.17;;;4.70;;
16037;SDS011;8123;50.906;6.172;2023-04-03T00:21:04;9.40;;;4.50;;
16037;SDS011;8123;50.906;6.172;2023-04-03T00:23:31;6.83;;;4.83;;
16037;SDS011;8123;50.906;6.172;2023-04-03T00:25:56;13.40;;;4.70;;
16037;SDS011;8123;50.906;6.172;2023-04-03T00:28:22;24.63;;;5.77;;
16037;SDS011;8123;50.906;6.172;2023-04-03T00:30:48;5.80;;;4.17;;
16037;SDS011;8123;50.906;6.172;2023-04-03T00:33:15;10.40;;;6.57;;
16037;SDS011;8123;50.906;6.172;2023-04-03T00:35:41;7.07;;;5.23;;
16037;SDS011;8123;50.906;6.172;2023-04-03T00:38:07;7.53;;;4.90;;
16037;SDS011;8123;50.906;6.172;2023-04-03T00:40:34;11.70;;;5.30;;
16037;SDS011;8123;50.906;6.172;2023-04-03T00:43:01;7.63;;;5.82;;
16037;SDS011;8123;50.906;6.172;2023-04-03T00:45:50;9.32;;;6.18;;
16037;SDS011;8123;50.906;6.172;2023-04-03T00:48:22;11.32;;;5.93;;
16037;SDS011;8123;50.906;6.172;2023-04-03T00:50:53;7.78;;;5.28;;
16037;SDS011;8123;50.906;6.172;2023-04-03T00:53:22;11.15;;;5.85;;
16037;SDS011;8123;50.906;6.172;2023-04-03T00:56:00;7.40;;;5.43;;
16037;SDS011;8123;50.906;6.172;2023-04-03T00:58:37;8.40;;;5.93;;
16037;SDS011;8123;50.906;6.172;2023-04-03T01:01:08;9.10;;;5.22;;
16037;SDS011;8123;50.906;6.172;2023-04-03T01:03:37;11.45;;;6.30;;
16037;SDS011;8123;50.906;6.172;2023-04-03T01:06:03;12.23;;;5.57;;
16037;SDS011;8123;50.906;6.172;2023-04-03T01:08:29;10.20;;;6.23;;
16037;SDS011;8123;50.906;6.172;2023-04-03T01:10:55;10.83;;;6.07;;
16037;SDS011;8123;50.906;6.172;2023-04-03T01:13:25;11.43;;;6.43;;
16037;SDS011;8123;50.906;6.172;2023-04-03T01:15:53;16.67;;;6.32;;
16037;SDS011;8123;50.906;6.172;2023-04-03T01:18:20;19.80;;;6.97;;
16037;SDS011;8123;50.906;6.172;2023-04-03T01:26:24;7.57;;;6.05;;
16037;SDS011;8123;50.906;6.172;2023-04-03T01:28:50;9.50;;;6.85;;
16037;SDS011;8123;50.906;6.172;2023-04-03T01:33:52;8.48;;;6.15;;
16037;SDS011;8123;50.906;6.172;2023-04-03T01:36:20;8.27;;;6.90;;
16037;SDS011;8123;50.906;6.172;2023-04-03T01:38:51;6.20;;;5.70;;
16037;SDS011;8123;50.906;6.172;2023-04-03T01:41:18;11.75;;;7.03;;
16037;SDS011;8123;50.906;6.172;2023-04-03T01:43:46;13.85;;;8.32;;
16037;SDS011;8123;50.906;6.172;2023-04-03T01:46:12;21.35;;;10.52;;
16037;SDS011;8123;50.906;6.172;2023-04-03T01:48:38;13.68;;;10.18;;
16037;SDS011;8123;50.906;6.172;2023-04-03T01:51:04;15.83;;;8.77;;
16037;SDS011;8123;50.906;6.172;2023-04-03T01:53:30;11.43;;;7.93;;
16037;SDS011;8123;50.906;6.172;2023-04-03T01:55:55;9.70;;;7.10;;
16037;SDS011;8123;50.906;6.172;2023-04-03T01:58:21;12.13;;;7.53;;
16037;SDS011;8123;50.906;6.172;2023-04-03T02:00:46;11.37;;;6.93;;
16037;SDS011;8123;50.906;6.172;2023-04-03T02:03:12;7.55;;;6.30;;
16037;SDS011;8123;50.906;6.172;2023-04-03T02:05:38;8.90;;;6.63;;
16037;SDS011;8123;50.906;6.172;2023-04-03T02:08:04;16.57;;;7.57;;
16037;SDS011;8123;50.906;6.172;2023-04-03T02:10:30;12.27;;;7.10;;
16037;SDS011;8123;50.906;6.172;2023-04-03T02:12:55;11.57;;;6.97;;
16037;SDS011;8123;50.906;6.172;2023-04-03T02:15:21;15.60;;;7.57;;
16037;SDS011;8123;50.906;6.172;2023-04-03T02:17:47;8.70;;;7.00;;
16037;SDS011;8123;50.906;6.172;2023-04-03T02:20:12;14.50;;;7.50;;
16037;SDS011;8123;50.906;6.172;2023-04-03T02:22:38;13.70;;;6.73;;
16037;SDS011;8123;50.906;6.172;2023-04-03T02:25:04;9.40;;;6.80;;
16037;SDS011;8123;50.906;6.172;2023-04-03T02:27:30;10.67;;;6.80;;
16037;SDS011;8123;50.906;6.172;2023-04-03T02:29:56;9.02;;;6.25;;
16037;SDS011;8123;50.906;6.172;2023-04-03T02:32:22;8.90;;;7.27;;
16037;SDS011;8123;50.906;6.172;2023-04-03T02:34:48;9.50;;;6.80;;
16037;SDS011;8123;50.906;6.172;2023-04-03T02:37:13;13.47;;;7.13;;
16037;SDS011;8123;50.906;6.172;2023-04-03T02:39:39;18.20;;;7.70;;
16037;SDS011;8123;50.906;6.172;2023-04-03T02:42:05;16.50;;;7.77;;
16037;SDS011;8123;50.906;6.172;2023-04-03T02:44:30;14.47;;;7.90;;
16037;SDS011;8123;50.906;6.172;2023-04-03T02:46:56;16.43;;;7.70;;
16037;SDS011;8123;50.906;6.172;2023-04-03T02:49:22;15.30;;;8.07;;
16037;SDS011;8123;50.906;6.172;2023-04-03T02:51:47;17.67;;;8.00;;
16037;SDS011;8123;50.906;6.172;2023-04-03T02:54:13;14.27;;;8.60;;
16037;SDS011;8123;50.906;6.172;2023-04-03T02:56:38;16.60;;;8.90;;
16037;SDS011;8123;50.906;6.172;2023-04-03T02:59:04;20.40;;;8.47;;
16037;SDS011;8123;50.906;6.172;2023-04-03T03:01:30;15.73;;;9.40;;
16037;SDS011;8123;50.906;6.172;2023-04-03T03:03:57;16.83;;;8.43;;
16037;SDS011;8123;50.906;6.172;2023-04-03T03:06:26;19.83;;;9.10;;
16037;SDS011;8123;50.906;6.172;2023-04-03T03:08:52;17.13;;;9.57;;
16037;SDS011;8123;50.906;6.172;2023-04-03T03:11:18;10.97;;;7.97;;
16037;SDS011;8123;50.906;6.172;2023-04-03T03:13:43;16.53;;;9.50;;
16037;SDS011;8123;50.906;6.172;2023-04-03T03:16:10;22.57;;;11.20;;
16037;SDS011;8123;50.906;6.172;2023-04-03T03:18:36;15.07;;;10.23;;
16037;SDS011;8123;50.906;6.172;2023-04-03T03:21:02;18.60;;;9.93;;
16037;SDS011;8123;50.906;6.172;2023-04-03T03:23:29;10.85;;;8.88;;
16037;SDS011;8123;50.906;6.172;2023-04-03T03:26:02;14.98;;;9.02;;
16037;SDS011;8123;50.906;6.172;2023-04-03T03:28:29;16.38;;;10.05;;
16037;SDS011;8123;50.906;6.172;2023-04-03T03:30:56;12.30;;;9.60;;
16037;SDS011;8123;50.906;6.172;2023-04-03T03:33:22;16.23;;;9.77;;
16037;SDS011;8123;50.906;6.172;2023-04-03T03:35:48;15.57;;;10.25;;
16037;SDS011;8123;50.906;6.172;2023-04-03T03:38:14;17.85;;;9.65;;
16037;SDS011;8123;50.906;6.172;2023-04-03T03:40:40;21.73;;;11.90;;
16037;SDS011;8123;50.906;6.172;2023-04-03T03:43:06;19.20;;;10.53;;
16037;SDS011;8123;50.906;6.172;2023-04-03T03:45:31;21.57;;;10.97;;
16037;SDS011;8123;50.906;6.172;2023-04-03T03:47:57;24.00;;;11.53;;
16037;SDS011;8123;50.906;6.172;2023-04-03T03:50:23;24.80;;;10.97;;
16037;SDS011;8123;50.906;6.172;2023-04-03T03:52:48;23.30;;;10.80;;
16037;SDS011;8123;50.906;6.172;2023-04-03T03:55:14;25.23;;;11.80;;
16037;SDS011;8123;50.906;6.172;2023-04-03T03:57:40;21.73;;;12.50;;
16037;SDS011;8123;50.906;6.172;2023-04-03T04:00:05;23.33;;;11.63;;
16037;SDS011;8123;50.906;6.172;2023-04-03T04:02:32;21.42;;;12.27;;
16037;SDS011;8123;50.906;6.172;2023-04-03T04:04:58;20.23;;;11.60;;
16037;SDS011;8123;50.906;6.172;2023-04-03T04:07:23;35.43;;;14.00;;
16037;SDS011;8123;50.906;6.172;2023-04-03T04:09:49;24.77;;;12.90;;
16037;SDS011;8123;50.906;6.172;2023-04-03T04:12:15;23.20;;;14.93;;
16037;SDS011;8123;50.906;6.172;2023-04-03T04:14:41;27.00;;;13.37;;
16037;SDS011;8123;50.906;6.172;2023-04-03T04:17:06;33.83;;;13.10;;
16037;SDS011;8123;50.906;6.172;2023-04-03T04:19:32;26.97;;;13.90;;
16037;SDS011;8123;50.906;6.172;2023-04-03T04:21:58;26.33;;;13.90;;
16037;SDS011;8123;50.906;6.172;2023-04-03T04:24:23;23.77;;;13.07;;
16037;SDS011;8123;50.906;6.172;2023-04-03T04:26:49;20.53;;;13.17;;
16037;SDS011;8123;50.906;6.172;2023-04-03T04:29:15;27.00;;;14.60;;
16037;SDS011;8123;50.906;6.172;2023-04-03T04:31:41;26.07;;;14.23;;
16037;SDS011;8123;50.906;6.172;2023-04-03T04:34:06;23.07;;;14.23;;
16037;SDS011;8123;50.906;6.172;2023-04-03T04:36:32;29.73;;;14.70;;
16037;SDS011;8123;50.906;6.172;2023-04-03T04:38:58;26.13;;;14.80;;
16037;SDS011;8123;50.906;6.172;2023-04-03T04:41:23;22.87;;;13.70;;
16037;SDS011;8123;50.906;6.172;2023-04-03T04:43:50;25.70;;;13.60;;
16037;SDS011;8123;50.906;6.172;2023-04-03T04:46:16;26.83;;;14.98;;
16037;SDS011;8123;50.906;6.172;2023-04-03T04:48:42;25.35;;;14.20;;
16037;SDS011;8123;50.906;6.172;2023-04-03T04:51:08;24.27;;;12.43;;
16037;SDS011;8123;50.906;6.172;2023-04-03T04:53:34;30.40;;;14.67;;
16037;SDS011;8123;50.906;6.172;2023-04-03T04:55:59;36.27;;;13.37;;
16037;SDS011;8123;50.906;6.172;2023-04-03T04:58:25;20.40;;;12.00;;
16037;SDS011;8123;50.906;6.172;2023-04-03T05:01:00;23.50;;;13.30;;
16037;SDS011;8123;50.906;6.172;2023-04-03T05:03:28;18.77;;;11.48;;
16037;SDS011;8123;50.906;6.172;2023-04-03T05:05:54;18.52;;;12.15;;
16037;SDS011;8123;50.906;6.172;2023-04-03T05:08:20;21.00;;;13.30;;
16037;SDS011;8123;50.906;6.172;2023-04-03T05:10:46;18.33;;;12.82;;
16037;SDS011;8123;50.906;6.172;2023-04-03T05:13:12;18.80;;;12.50;;
16037;SDS011;8123;50.906;6.172;2023-04-03T05:15:38;32.63;;;13.48;;
16037;SDS011;8123;50.906;6.172;2023-04-03T05:18:04;23.50;;;12.73;;
16037;SDS011;8123;50.906;6.172;2023-04-03T05:20:30;23.93;;;11.60;;
16037;SDS011;8123;50.906;6.172;2023-04-03T05:22:56;18.33;;;11.38;;
16037;SDS011;8123;50.906;6.172;2023-04-03T05:25:21;19.67;;;12.13;;
16037;SDS011;8123;50.906;6.172;2023-04-03T05:27:47;22.47;;;12.33;;
16037;SDS011;8123;50.906;6.172;2023-04-03T05:30:13;23.00;;;12.33;;
16037;SDS011;8123;50.906;6.172;2023-04-03T05:32:43;29.13;;;12.70;;
16037;SDS011;8123;50.906;6.172;2023-04-03T05:35:09;29.42;;;11.80;;
16037;SDS011;8123;50.906;6.172;2023-04-03T05:37:35;20.20;;;12.13;;
16037;SDS011;8123;50.906;6.172;2023-04-03T05:40:01;28.48;;;12.48;;
16037;SDS011;8123;50.906;6.172;2023-04-03T05:42:28;18.98;;;11.82;;
16037;SDS011;8123;50.906;6.172;2023-04-03T05:44:54;20.92;;;12.52;;
16037;SDS011;8123;50.906;6.172;2023-04-03T05:47:20;19.97;;;10.20;;
16037;SDS011;8123;50.906;6.172;2023-04-03T05:49:46;17.47;;;10.93;;
16037;SDS011;8123;50.906;6.172;2023-04-03T05:52:17;16.20;;;9.40;;
16037;SDS011;8123;50.906;6.172;2023-04-03T05:55:01;14.27;;;9.30;;
16037;SDS011;8123;50.906;6.172;2023-04-03T05:57:27;16.73;;;9.63;;
16037;SDS011;8123;50.906;6.172;2023-04-03T05:59:52;21.50;;;11.93;;
16037;SDS011;8123;50.906;6.172;2023-04-03T06:02:19;15.80;;;9.40;;
16037;SDS011;8123;50.906;6.172;2023-04-03T06:04:46;15.80;;;9.10;;
16037;SDS011;8123;50.906;6.172;2023-04-03T06:07:19;17.52;;;9.75;;
16037;SDS011;8123;50.906;6.172;2023-04-03T06:09:47;15.60;;;9.20;;
16037;SDS011;8123;50.906;6.172;2023-04-03T06:12:16;11.50;;;8.23;;
16037;SDS011;8123;50.906;6.172;2023-04-03T06:14:42;13.67;;;7.87;;
16037;SDS011;8123;50.906;6.172;2023-04-03T06:17:08;27.97;;;8.50;;
16037;SDS011;8123;50.906;6.172;2023-04-03T06:19:34;16.83;;;8.18;;
16037;SDS011;8123;50.906;6.172;2023-04-03T06:22:00;11.07;;;7.80;;
16037;SDS011;8123;50.906;6.172;2023-04-03T06:24:26;19.00;;;9.00;;
16037;SDS011;8123;50.906;6.172;2023-04-03T06:26:52;16.37;;;8.17;;
16037;SDS011;8123;50.906;6.172;2023-04-03T06:29:19;15.68;;;8.13;;
16037;SDS011;8123;50.906;6.172;2023-04-03T06:31:45;13.50;;;8.32;;
16037;SDS011;8123;50.906;6.172;2023-04-03T06:34:11;13.02;;;7.88;;
16037;SDS011;8123;50.906;6.172;2023-04-03T06:36:38;10.60;;;8.07;;
16037;SDS011;8123;50.906;6.172;2023-04-03T06:39:04;14.18;;;7.20;;
16037;SDS011;8123;50.906;6.172;2023-04-03T06:41:31;8.80;;;6.63;;
16037;SDS011;8123;50.906;6.172;2023-04-03T06:43:58;12.48;;;7.60;;
16037;SDS011;8123;50.906;6.172;2023-04-03T06:46:25;9.97;;;6.70;;
16037;SDS011;8123;50.906;6.172;2023-04-03T06:48:51;13.23;;;6.68;;
16037;SDS011;8123;50.906;6.172;2023-04-03T06:51:18;8.18;;;6.25;;
16037;SDS011;8123;50.906;6.172;2023-04-03T06:53:52;17.02;;;6.18;;
16037;SDS011;8123;50.906;6.172;2023-04-03T06:56:19;15.40;;;7.78;;
16037;SDS011;8123;50.906;6.172;2023-04-03T06:58:46;12.05;;;6.20;;
16037;SDS011;8123;50.906;6.172;2023-04-03T07:01:12;10.50;;;6.30;;
16037;SDS011;8123;50.906;6.172;2023-04-03T07:03:39;13.70;;;5.70;;
16037;SDS011;8123;50.906;6.172;2023-04-03T07:06:06;7.00;;;5.23;;
16037;SDS011;8123;50.906;6.172;2023-04-03T07:08:34;6.87;;;4.80;;
16037;SDS011;8123;50.906;6.172;2023-04-03T07:11:00;9.67;;;4.73;;
16037;SDS011;8123;50.906;6.172;2023-04-03T07:13:27;8.63;;;5.00;;
16037;SDS011;8123;50.906;6.172;2023-04-03T07:15:52;7.63;;;5.43;;
16037;SDS011;8123;50.906;6.172;2023-04-03T07:18:18;6.80;;;5.30;;
16037;SDS011;8123;50.906;6.172;2023-04-03T07:20:44;7.53;;;4.63;;
16037;SDS011;8123;50.906;6.172;2023-04-03T07:23:10;6.73;;;4.00;;
16037;SDS011;8123;50.906;6.172;2023-04-03T07:25:36;7.00;;;4.67;;
16037;SDS011;8123;50.906;6.172;2023-04-03T07:28:06;7.57;;;4.17;;
16037;SDS011;8123;50.906;6.172;2023-04-03T07:30:33;7.63;;;3.90;;
16037;SDS011;8123;50.906;6.172;2023-04-03T07:32:59;9.20;;;5.40;;
16037;SDS011;8123;50.906;6.172;2023-04-03T07:35:25;6.73;;;4.83;;
16037;SDS011;8123;50.906;6.172;2023-04-03T07:37:51;13.30;;;4.77;;
16037;SDS011;8123;50.906;6.172;2023-04-03T07:40:17;17.17;;;4.83;;
16037;SDS011;8123;50.906;6.172;2023-04-03T07:42:42;7.30;;;4.60;;
16037;SDS011;8123;50.906;6.172;2023-04-03T07:45:08;7.13;;;4.50;;
16037;SDS011;8123;50.906;6.172;2023-04-03T07:47:34;7.03;;;4.00;;
16037;SDS011;8123;50.906;6.172;2023-04-03T07:50:00;23.83;;;5.33;;
16037;SDS011;8123;50.906;6.172;2023-04-03T07:52:25;10.93;;;3.97;;
16037;SDS011;8123;50.906;6.172;2023-04-03T07:54:51;10.07;;;3.73;;
16037;SDS011;8123;50.906;6.172;2023-04-03T07:57:17;8.87;;;3.90;;
16037;SDS011;8123;50.906;6.172;2023-04-03T07:59:42;12.93;;;4.33;;
16037;SDS011;8123;50.906;6.172;2023-04-03T08:02:11;9.60;;;4.00;;
16037;SDS011;8123;50.906;6.172;2023-04-03T08:04:37;8.60;;;4.40;;
16037;SDS011;8123;50.906;6.172;2023-04-03T08:07:03;10.03;;;3.90;;
16037;SDS011;8123;50.906;6.172;2023-04-03T08:09:29;5.40;;;3.77;;
16037;SDS011;8123;50.906;6.172;2023-04-03T08:11:56;6.47;;;3.27;;
16037;SDS011;8123;50.906;6.172;2023-04-03T08:14:22;5.87;;;3.30;;
16037;SDS011;8123;50.906;6.172;2023-04-03T08:16:48;4.00;;;3.10;;
16037;SDS011;8123;50.906;6.172;2023-04-03T08:19:14;9.80;;;3.90;;
16037;SDS011;8123;50.906;6.172;2023-04-03T08:21:42;10.23;;;2.70;;
16037;SDS011;8123;50.906;6.172;2023-04-03T08:24:08;4.27;;;2.73;;
16037;SDS011;8123;50.906;6.172;2023-04-03T08:26:34;4.87;;;2.90;;
16037;SDS011;8123;50.906;6.172;2023-04-03T08:29:00;10.13;;;2.70;;
16037;SDS011;8123;50.906;6.172;2023-04-03T08:31:26;13.57;;;4.00;;
16037;SDS011;8123;50.906;6.172;2023-04-03T08:33:52;11.63;;;4.97;;
16037;SDS011;8123;50.906;6.172;2023-04-03T08:36:20;10.60;;;3.63;;
16037;SDS011;8123;50.906;6.172;2023-04-03T08:38:50;8.13;;;3.60;;
16037;SDS011;8123;50.906;6.172;2023-04-03T08:49:39;4.93;;;2.93;;
16037;SDS011;8123;50.906;6.172;2023-04-03T08:52:20;3.70;;;3.30;;
16037;SDS011;8123;50.906;6.172;2023-04-03T08:54:53;6.53;;;3.33;;
16037;SDS011;8123;50.906;6.172;2023-04-03T08:57:29;28.87;;;10.13;;
16037;SDS011;8123;50.906;6.172;2023-04-03T09:00:02;6.23;;;3.97;;
16037;SDS011;8123;50.906;6.172;2023-04-03T09:02:43;10.43;;;3.00;;
16037;SDS011;8123;50.906;6.172;2023-04-03T09:05:16;8.13;;;2.93;;
16037;SDS011;8123;50.906;6.172;2023-04-03T09:07:58;10.00;;;3.60;;
16037;SDS011;8123;50.906;6.172;2023-04-03T09:10:33;3.30;;;2.80;;
16037;SDS011;8123;50.906;6.172;2023-04-03T09:13:05;6.93;;;2.50;;
16037;SDS011;8123;50.906;6.172;2023-04-03T09:16:10;7.27;;;2.77;;
16037;SDS011;8123;50.906;6.172;2023-04-03T09:18:48;5.00;;;2.87;;
16037;SDS011;8123;50.906;6.172;2023-04-03T09:21:24;8.43;;;3.60;;
16037;SDS011;8123;50.906;6.172;2023-04-03T09:24:03;3.40;;;2.77;;
16037;SDS011;8123;50.906;6.172;2023-04-03T09:26:46;2.77;;;2.20;;
16037;SDS011;8123;50.906;6.172;2023-04-03T09:29:19;6.77;;;3.13;;
16037;SDS011;8123;50.906;6.172;2023-04-03T09:31:48;4.93;;;2.87;;
16037;SDS011;8123;50.906;6.172;2023-04-03T09:34:32;4.83;;;2.83;;
16037;SDS011;8123;50.906;6.172;2023-04-03T09:37:01;11.33;;;2.70;;
16037;SDS011;8123;50.906;6.172;2023-04-03T09:39:31;6.10;;;2.77;;
16037;SDS011;8123;50.906;6.172;2023-04-03T09:42:20;9.77;;;3.20;;
16037;SDS011;8123;50.906;6.172;2023-04-03T09:45:21;2.67;;;2.47;;
16037;SDS011;8123;50.906;6.172;2023-04-03T09:47:47;4.63;;;3.43;;
16037;SDS011;8123;50.906;6.172;2023-04-03T09:52:43;7.53;;;2.93;;
16037;SDS011;8123;50.906;6.172;2023-04-03T09:55:14;3.77;;;2.07;;
16037;SDS011;8123;50.906;6.172;2023-04-03T09:58:03;3.40;;;1.80;;
16037;SDS011;8123;50.906;6.172;2023-04-03T10:00:46;5.60;;;2.47;;
16037;SDS011;8123;50.906;6.172;2023-04-03T10:03:23;6.73;;;2.30;;
16037;SDS011;8123;50.906;6.172;2023-04-03T10:05:54;5.70;;;1.90;;
16037;SDS011;8123;50.906;6.172;2023-04-03T10:08:25;2.43;;;2.23;;
16037;SDS011;8123;50.906;6.172;2023-04-03T10:11:14;4.37;;;2.60;;
16037;SDS011;8123;50.906;6.172;2023-04-03T10:13:51;2.90;;;2.00;;
16037;SDS011;8123;50.906;6.172;2023-04-03T10:16:18;7.27;;;2.60;;
16037;SDS011;8123;50.906;6.172;2023-04-03T10:18:53;2.73;;;1.90;;
16037;SDS011;8123;50.906;6.172;2023-04-03T10:21:32;6.47;;;1.67;;
16037;SDS011;8123;50.906;6.172;2023-04-03T10:26:57;2.90;;;1.83;;
16037;SDS011;8123;50.906;6.172;2023-04-03T10:40:39;2.23;;;1.73;;
16037;SDS011;8123;50.906;6.172;2023-04-03T10:43:26;1.90;;;1.67;;
16037;SDS011;8123;50.906;6.172;2023-04-03T10:53:55;2.87;;;1.67;;
16037;SDS011;8123;50.906;6.172;2023-04-03T10:59:18;4.27;;;2.03;;
16037;SDS011;8123;50.906;6.172;2023-04-03T11:01:53;2.30;;;1.43;;
16037;SDS011;8123;50.906;6.172;2023-04-03T11:04:23;6.53;;;1.83;;
16037;SDS011;8123;50.906;6.172;2023-04-03T11:07:00;1.73;;;1.63;;
16037;SDS011;8123;50.906;6.172;2023-04-03T11:09:33;4.93;;;1.80;;
16037;SDS011;8123;50.906;6.172;2023-04-03T11:12:06;3.03;;;1.80;;
16037;SDS011;8123;50.906;6.172;2023-04-03T11:14:44;5.80;;;1.77;;
16037;SDS011;8123;50.906;6.172;2023-04-03T11:17:22;2.10;;;1.90;;
16037;SDS011;8123;50.906;6.172;2023-04-03T11:19:59;1.87;;;1.47;;
16037;SDS011;8123;50.906;6.172;2023-04-03T11:22:32;3.33;;;2.37;;
16037;SDS011;8123;50.906;6.172;2023-04-03T11:27:42;3.67;;;1.70;;
16037;SDS011;8123;50.906;6.172;2023-04-03T11:36:10;6.00;;;2.33;;
16037;SDS011;8123;50.906;6.172;2023-04-03T11:38:44;2.00;;;1.90;;
16037;SDS011;8123;50.906;6.172;2023-04-03T11:41:12;2.73;;;2.00;;
16037;SDS011;8123;50.906;6.172;2023-04-03T11:43:40;3.93;;;2.10;;
16037;SDS011;8123;50.906;6.172;2023-04-03T11:46:20;3.90;;;1.60;;
16037;SDS011;8123;50.906;6.172;2023-04-03T11:48:47;3.13;;;1.77;;
16037;SDS011;8123;50.906;6.172;2023-04-03T11:53:46;2.50;;;1.77;;
16037;SDS011;8123;50.906;6.172;2023-04-03T12:01:50;1.97;;;1.77;;
16037;SDS011;8123;50.906;6.172;2023-04-03T12:04:24;4.40;;;2.20;;
16037;SDS011;8123;50.906;6.172;2023-04-03T12:06:53;3.80;;;2.00;;
16037;SDS011;8123;50.906;6.172;2023-04-03T12:12:22;3.10;;;1.50;;
16037;SDS011;8123;50.906;6.172;2023-04-03T12:17:47;2.53;;;1.70;;
16037;SDS011;8123;50.906;6.172;2023-04-03T12:23:27;6.00;;;1.70;;
16037;SDS011;8123;50.906;6.172;2023-04-03T12:26:01;2.00;;;1.63;;
16037;SDS011;8123;50.906;6.172;2023-04-03T12:28:34;3.20;;;1.37;;
16037;SDS011;8123;50.906;6.172;2023-04-03T12:31:02;3.87;;;2.10;;
16037;SDS011;8123;50.906;6.172;2023-04-03T12:33:36;1.70;;;1.60;;
16037;SDS011;8123;50.906;6.172;2023-04-03T12:39:13;4.00;;;1.53;;
16037;SDS011;8123;50.906;6.172;2023-04-03T12:44:56;4.37;;;2.20;;
16037;SDS011;8123;50.906;6.172;2023-04-03T12:47:29;3.23;;;1.67;;
16037;SDS011;8123;50.906;6.172;2023-04-03T12:50:00;4.60;;;1.90;;
16037;SDS011;8123;50.906;6.172;2023-04-03T12:52:33;4.03;;;2.40;;
16037;SDS011;8123;50.906;6.172;2023-04-03T12:55:07;6.27;;;1.80;;
16037;SDS011;8123;50.906;6.172;2023-04-03T12:57:40;2.90;;;1.80;;
16037;SDS011;8123;50.906;6.172;2023-04-03T13:02:53;1.80;;;1.70;;
16037;SDS011;8123;50.906;6.172;2023-04-03T13:10:23;4.63;;;1.60;;
16037;SDS011;8123;50.906;6.172;2023-04-03T13:12:54;2.33;;;2.13;;
16037;SDS011;8123;50.906;6.172;2023-04-03T13:15:39;5.73;;;2.20;;
16037;SDS011;8123;50.906;6.172;2023-04-03T13:18:24;1.77;;;1.57;;
16037;SDS011;8123;50.906;6.172;2023-04-03T13:20:52;3.43;;;1.53;;
16037;SDS011;8123;50.906;6.172;2023-04-03T13:23:22;2.60;;;1.70;;
16037;SDS011;8123;50.906;6.172;2023-04-03T13:25:48;3.10;;;1.83;;
16037;SDS011;8123;50.906;6.172;2023-04-03T13:28:16;3.87;;;1.40;;
16037;SDS011;8123;50.906;6.172;2023-04-03T13:31:08;2.20;;;2.00;;
16037;SDS011;8123;50.906;6.172;2023-04-03T13:33:39;2.40;;;2.20;;
16037;SDS011;8123;50.906;6.172;2023-04-03T13:36:39;3.77;;;2.20;;
16037;SDS011;8123;50.906;6.172;2023-04-03T13:42:03;8.47;;;2.03;;
16037;SDS011;8123;50.906;6.172;2023-04-03T13:44:39;5.67;;;1.73;;
16037;SDS011;8123;50.906;6.172;2023-04-03T13:49:38;2.00;;;1.90;;
16037;SDS011;8123;50.906;6.172;2023-04-03T13:55:23;1.77;;;1.67;;
16037;SDS011;8123;50.906;6.172;2023-04-03T13:58:03;1.67;;;1.50;;
16037;SDS011;8123;50.906;6.172;2023-04-03T14:05:52;3.10;;;1.43;;
16037;SDS011;8123;50.906;6.172;2023-04-03T14:08:18;6.70;;;1.60;;
16037;SDS011;8123;50.906;6.172;2023-04-03T14:10:44;3.13;;;1.77;;
16037;SDS011;8123;50.906;6.172;2023-04-03T14:13:15;1.60;;;1.50;;
16037;SDS011;8123;50.906;6.172;2023-04-03T14:15:43;1.63;;;1.60;;
16037;SDS011;8123;50.906;6.172;2023-04-03T14:18:11;1.77;;;1.67;;
16037;SDS011;8123;50.906;6.172;2023-04-03T14:20:37;1.50;;;1.40;;
16037;SDS011;8123;50.906;6.172;2023-04-03T14:23:03;2.90;;;1.37;;
16037;SDS011;8123;50.906;6.172;2023-04-03T14:25:29;1.50;;;1.40;;
16037;SDS011;8123;50.906;6.172;2023-04-03T14:27:55;3.83;;;1.60;;
16037;SDS011;8123;50.906;6.172;2023-04-03T14:30:25;4.80;;;1.83;;
16037;SDS011;8123;50.906;6.172;2023-04-03T14:32:53;2.50;;;2.40;;
16037;SDS011;8123;50.906;6.172;2023-04-03T14:35:20;1.50;;;1.40;;
16037;SDS011;8123;50.906;6.172;2023-04-03T14:37:46;1.83;;;1.60;;
16037;SDS011;8123;50.906;6.172;2023-04-03T14:40:14;1.40;;;1.30;;
16037;SDS011;8123;50.906;6.172;2023-04-03T14:42:42;1.73;;;1.37;;
16037;SDS011;8123;50.906;6.172;2023-04-03T14:45:09;1.33;;;1.23;;
16037;SDS011;8123;50.906;6.172;2023-04-03T14:47:42;3.43;;;1.43;;
16037;SDS011;8123;50.906;6.172;2023-04-03T14:50:16;1.93;;;1.50;;
16037;SDS011;8123;50.906;6.172;2023-04-03T14:52:53;3.80;;;1.40;;
16037;SDS011;8123;50.906;6.172;2023-04-03T14:55:22;1.80;;;1.53;;
16037;SDS011;8123;50.906;6.172;2023-04-03T14:57:49;1.40;;;1.20;;
16037;SDS011;8123;50.906;6.172;2023-04-03T15:00:18;1.80;;;1.70;;
16037;SDS011;8123;50.906;6.172;2023-04-03T15:02:46;3.33;;;1.87;;
16037;SDS011;8123;50.906;6.172;2023-04-03T15:05:12;2.40;;;1.43;;
16037;SDS011;8123;50.906;6.172;2023-04-03T15:07:40;1.60;;;1.50;;
16037;SDS011;8123;50.906;6.172;2023-04-03T15:12:40;2.17;;;1.97;;
16037;SDS011;8123;50.906;6.172;2023-04-03T15:15:07;7.63;;;2.73;;
16037;SDS011;8123;50.906;6.172;2023-04-03T15:17:33;3.33;;;1.60;;
16037;SDS011;8123;50.906;6.172;2023-04-03T15:20:01;2.10;;;1.60;;
16037;SDS011;8123;50.906;6.172;2023-04-03T15:22:28;2.90;;;1.70;;
16037;SDS011;8123;50.906;6.172;2023-04-03T15:24:54;2.80;;;2.10;;
16037;SDS011;8123;50.906;6.172;2023-04-03T15:27:20;2.00;;;1.80;;
16037;SDS011;8123;50.906;6.172;2023-04-03T15:29:45;1.60;;;1.57;;
16037;SDS011;8123;50.906;6.172;2023-04-03T15:32:11;3.63;;;2.60;;
16037;SDS011;8123;50.906;6.172;2023-04-03T15:34:38;7.20;;;2.00;;
16037;SDS011;8123;50.906;6.172;2023-04-03T15:37:04;2.20;;;1.63;;
16037;SDS011;8123;50.906;6.172;2023-04-03T15:39:30;7.93;;;2.30;;
16037;SDS011;8123;50.906;6.172;2023-04-03T15:41:56;5.87;;;1.80;;
16037;SDS011;8123;50.906;6.172;2023-04-03T15:44:24;3.73;;;1.53;;
16037;SDS011;8123;50.906;6.172;2023-04-03T15:46:50;2.57;;;1.83;;
16037;SDS011;8123;50.906;6.172;2023-04-03T15:49:17;9.40;;;1.90;;
16037;SDS011;8123;50.906;6.172;2023-04-03T15:51:44;2.40;;;1.97;;
16037;SDS011;8123;50.906;6.172;2023-04-03T15:54:09;2.80;;;2.00;;
16037;SDS011;8123;50.906;6.172;2023-04-03T15:56:35;3.63;;;2.07;;
16037;SDS011;8123;50.906;6.172;2023-04-03T15:59:01;1.97;;;1.70;;
16037;SDS011;8123;50.906;6.172;2023-04-03T16:01:27;3.93;;;1.73;;
16037;SDS011;8123;50.906;6.172;2023-04-03T16:03:53;5.43;;;1.37;;
16037;SDS011;8123;50.906;6.172;2023-04-03T16:06:20;10.33;;;1.70;;
16037;SDS011;8123;50.906;6.172;2023-04-03T16:08:46;9.37;;;1.93;;
16037;SDS011;8123;50.906;6.172;2023-04-03T16:11:13;8.77;;;2.40;;
16037;SDS011;8123;50.906;6.172;2023-04-03T16:13:38;5.80;;;2.40;;
16037;SDS011;8123;50.906;6.172;2023-04-03T16:16:04;3.17;;;1.43;;
16037;SDS011;8123;50.906;6.172;2023-04-03T16:18:30;3.60;;;2.30;;
16037;SDS011;8123;50.906;6.172;2023-04-03T16:20:56;10.03;;;1.93;;
16037;SDS011;8123;50.906;6.172;2023-04-03T16:23:22;1.60;;;1.50;;
16037;SDS011;8123;50.906;6.172;2023-04-03T16:25:48;2.77;;;1.97;;
16037;SDS011;8123;50.906;6.172;2023-04-03T16:28:15;2.97;;;1.80;;
16037;SDS011;8123;50.906;6.172;2023-04-03T16:30:42;1.90;;;1.80;;
16037;SDS011;8123;50.906;6.172;2023-04-03T16:33:09;2.10;;;2.00;;
16037;SDS011;8123;50.906;6.172;2023-04-03T16:35:35;3.80;;;2.27;;
16037;SDS011;8123;50.906;6.172;2023-04-03T16:38:01;6.43;;;2.10;;
16037;SDS011;8123;50.906;6.172;2023-04-03T16:40:26;8.50;;;2.27;;
16037;SDS011;8123;50.906;6.172;2023-04-03T16:42:52;4.47;;;1.40;;